createdAt,value
2023-07-02T00:01:17.923Z,100235.59
2023-07-02T00:06:14.636Z,100232.53
2023-07-02T00:11:13.082Z,100233.78
2023-07-02T00:16:12.774Z,100238.41
2023-07-02T00:21:13.834Z,100241.72
2023-07-02T00:26:12.319Z,100225.91
2023-07-02T00:31:10.208Z,100241.97
2023-07-02T00:36:07.156Z,100235.03
2023-07-02T00:41:03.820Z,100253.22
2023-07-02T00:46:00.616Z,100257.00
2023-07-02T00:50:58.181Z,100243.25
2023-07-02T00:55:54.796Z,100235.53
2023-07-02T01:00:51.689Z,100229.50
2023-07-02T01:05:48.664Z,100229.88
2023-07-02T01:10:46.336Z,100231.06
2023-07-02T01:15:43.627Z,100231.63
2023-07-02T01:20:41.866Z,100230.41
2023-07-02T01:25:38.825Z,100222.91
2023-07-02T01:30:36.231Z,100224.09
2023-07-02T01:35:33.704Z,100216.94
2023-07-02T01:40:31.276Z,100213.84
2023-07-02T01:45:28.055Z,100221.25
2023-07-02T01:50:25.136Z,100196.47
2023-07-02T01:55:23.164Z,100218.19
2023-07-02T02:00:20.745Z,100223.03
2023-07-02T02:05:17.426Z,100220.38
2023-07-02T02:10:15.364Z,100223.59
2023-07-02T02:15:14.349Z,100219.50
2023-07-02T02:20:12.340Z,100218.94
2023-07-02T02:25:12.309Z,100222.44
2023-07-02T02:30:09.380Z,100220.19
2023-07-02T02:35:07.221Z,100215.63
2023-07-02T02:40:06.357Z,100212.69
2023-07-02T02:45:03.472Z,100211.69
2023-07-02T02:50:00.297Z,100209.25
2023-07-02T02:54:57.086Z,100206.75
2023-07-02T02:59:54.662Z,100211.94
2023-07-02T03:04:51.815Z,100202.88
2023-07-02T03:09:48.747Z,100212.44
2023-07-02T03:14:45.622Z,100214.81
2023-07-02T03:19:43.028Z,100214.97
2023-07-02T03:24:40.799Z,100220.25
2023-07-02T03:29:40.846Z,100225.31
2023-07-02T03:34:37.689Z,100228.09
2023-07-02T03:39:35.070Z,100218.50
2023-07-02T03:44:31.931Z,100222.59
2023-07-02T03:49:29.809Z,100230.25
2023-07-02T03:54:26.715Z,100232.63
2023-07-02T03:59:24.178Z,100237.66
2023-07-02T04:04:21.124Z,100242.41
2023-07-02T04:09:18.957Z,100223.16
2023-07-02T04:14:15.818Z,100251.25
2023-07-02T04:19:13.584Z,100243.72
2023-07-02T04:24:10.429Z,100244.53
2023-07-02T04:29:07.681Z,100252.44
2023-07-02T04:34:05.490Z,100225.31
2023-07-02T04:39:02.963Z,100232.94
2023-07-02T04:43:59.798Z,100251.13
2023-07-02T04:48:56.466Z,100259.00
2023-07-02T04:53:53.399Z,100239.00
2023-07-02T04:58:50.842Z,100266.00
2023-07-02T05:03:49.611Z,100268.19
2023-07-02T05:08:46.373Z,100271.16
2023-07-02T05:13:43.142Z,100270.31
2023-07-02T05:18:40.584Z,100272.31
2023-07-02T05:23:37.315Z,100266.66
2023-07-02T05:28:34.045Z,100262.97
2023-07-02T05:33:33.007Z,100270.94
2023-07-02T05:38:30.465Z,100270.91
2023-07-02T05:43:27.106Z,100272.88
2023-07-02T05:48:24.006Z,100278.06
2023-07-02T05:53:21.118Z,100282.03
2023-07-02T05:58:18.515Z,100284.00
2023-07-02T06:03:19.773Z,100290.81
2023-07-02T06:08:16.571Z,100290.75
2023-07-02T06:13:13.471Z,100285.84
2023-07-02T06:18:11.020Z,100290.13
2023-07-02T06:23:07.873Z,100280.13
2023-07-02T06:28:04.884Z,100289.75
2023-07-02T06:33:01.868Z,100282.88
2023-07-02T06:37:59.449Z,100277.06
2023-07-02T06:42:59.180Z,100272.13
2023-07-02T06:47:56.114Z,100269.47
2023-07-02T06:52:53.049Z,100270.00
2023-07-02T06:57:50.417Z,100282.22
2023-07-02T07:02:47.414Z,100287.81
2023-07-02T07:07:44.229Z,100289.81
2023-07-02T07:12:41.049Z,100284.56
2023-07-02T07:17:38.605Z,100282.44
2023-07-02T07:22:35.386Z,100282.28
2023-07-02T07:27:32.147Z,100284.81
2023-07-02T07:32:29.011Z,100268.69
2023-07-02T07:37:26.642Z,100288.22
2023-07-02T07:42:26.182Z,100283.84
2023-07-02T07:47:22.814Z,100281.00
2023-07-02T07:52:19.696Z,100282.16
2023-07-02T07:57:17.205Z,100283.69
2023-07-02T08:02:14.055Z,100290.75
2023-07-02T08:07:15.201Z,100288.41
2023-07-02T08:12:11.816Z,100307.41
2023-07-02T08:17:09.315Z,100270.91
2023-07-02T08:22:06.417Z,100314.47
2023-07-02T08:27:03.392Z,100311.44
2023-07-02T08:32:00.228Z,100309.44
2023-07-02T08:36:57.725Z,100320.00
2023-07-02T08:41:54.517Z,100318.34
2023-07-02T08:46:53.679Z,100322.88
2023-07-02T08:51:51.637Z,100315.31
2023-07-02T08:56:50.735Z,100316.66
2023-07-02T09:01:49.945Z,100315.00
2023-07-02T09:06:47.077Z,100315.47
2023-07-02T09:11:52.600Z,100306.03
2023-07-02T09:16:49.449Z,100313.44
2023-07-02T09:21:47.179Z,100320.78
2023-07-02T09:26:44.876Z,100319.38
2023-07-02T09:32:07.302Z,100317.84
2023-07-02T09:37:05.799Z,100331.25
2023-07-02T09:42:03.930Z,100327.03
2023-07-02T09:47:03.776Z,100322.56
2023-07-02T09:52:01.472Z,100333.59
2023-07-02T09:57:01.947Z,100337.84
2023-07-02T10:01:59.136Z,100334.44
2023-07-02T10:06:57.194Z,100337.97
2023-07-02T10:11:54.056Z,100338.63
2023-07-02T10:16:51.869Z,100331.44
2023-07-02T10:22:01.197Z,100326.59
2023-07-02T10:27:00.202Z,100321.78
2023-07-02T10:31:58.181Z,100312.59
2023-07-02T10:36:55.261Z,100306.00
2023-07-02T10:41:52.239Z,100311.59
2023-07-02T10:46:52.017Z,100313.31
2023-07-02T10:51:57.714Z,100309.06
2023-07-02T10:56:57.646Z,100303.69
2023-07-02T11:01:56.467Z,100295.28
2023-07-02T11:06:53.325Z,100290.91
2023-07-02T11:11:51.239Z,100288.03
2023-07-02T11:16:54.758Z,100291.59
2023-07-02T11:21:52.786Z,100284.13
2023-07-02T11:26:49.543Z,100278.00
2023-07-02T11:31:46.467Z,100273.34
2023-07-02T11:36:43.271Z,100265.53
2023-07-02T11:41:41.248Z,100264.50
2023-07-02T11:46:37.921Z,100273.56
2023-07-02T11:51:36.154Z,100269.06
2023-07-02T11:56:33.013Z,100267.88
2023-07-02T12:01:30.478Z,100264.53
2023-07-02T12:06:27.435Z,100261.66
2023-07-02T12:11:24.145Z,100249.34
2023-07-02T12:16:20.942Z,100253.28
2023-07-02T12:21:19.077Z,100249.22
2023-07-02T12:26:15.849Z,100231.31
2023-07-02T12:31:13.485Z,100243.53
2023-07-02T12:36:10.732Z,100236.09
2023-07-02T12:41:08.095Z,100235.94
2023-07-02T12:46:05.153Z,100229.13
2023-07-02T12:51:01.971Z,100225.38
2023-07-02T12:55:58.598Z,100224.56
2023-07-02T13:00:56.022Z,100222.31
2023-07-02T13:05:55.878Z,100218.88
2023-07-02T13:10:55.214Z,100222.69
2023-07-02T13:15:52.196Z,100223.19
2023-07-02T13:20:49.702Z,100214.38
2023-07-02T13:25:46.729Z,100222.72
2023-07-02T13:30:43.821Z,100216.09
2023-07-02T13:35:40.520Z,100212.03
2023-07-02T13:40:37.891Z,100212.22
2023-07-02T13:45:34.634Z,100211.69
2023-07-02T13:50:31.526Z,100203.72
2023-07-02T13:55:31.421Z,100197.88
2023-07-02T14:00:29.215Z,100195.66
2023-07-02T14:05:25.973Z,100196.03
2023-07-02T14:10:22.942Z,100191.81
2023-07-02T14:15:19.896Z,100196.03
2023-07-02T14:20:17.332Z,100188.72
2023-07-02T14:25:15.446Z,100184.59
2023-07-02T14:30:15.015Z,100180.28
2023-07-02T14:35:11.796Z,100181.13
2023-07-02T14:40:10.002Z,100176.38
2023-07-02T14:45:07.794Z,100177.81
2023-07-02T14:50:04.868Z,100176.63
2023-07-02T14:55:01.841Z,100168.53
2023-07-02T14:59:59.246Z,100169.34
2023-07-02T15:04:56.069Z,100164.91
2023-07-02T15:09:52.983Z,100169.56
2023-07-02T15:14:49.774Z,100176.84
2023-07-02T15:19:47.168Z,100170.84
2023-07-02T15:24:43.948Z,100175.28
2023-07-02T15:29:40.636Z,100179.28
2023-07-02T15:34:37.364Z,100178.09
2023-07-02T15:39:35.366Z,100189.06
2023-07-02T15:44:32.357Z,100191.19
2023-07-02T15:49:29.237Z,100194.38
2023-07-02T15:54:27.525Z,100202.69
2023-07-02T15:59:25.178Z,100214.59
2023-07-02T16:04:24.045Z,100216.91
2023-07-02T16:09:21.920Z,100218.19
2023-07-02T16:14:24.163Z,100213.28
2023-07-02T16:19:24.148Z,100221.03
2023-07-02T16:24:23.830Z,100221.19
2023-07-02T16:29:20.628Z,100226.44
2023-07-02T16:34:17.314Z,100221.19
2023-07-02T16:39:18.227Z,100224.25
2023-07-02T16:44:18.627Z,100221.44
2023-07-02T16:49:16.166Z,100214.22
2023-07-02T16:54:15.776Z,100236.97
2023-07-02T16:59:16.596Z,100237.63
2023-07-02T17:04:16.538Z,100244.56
2023-07-02T17:09:17.605Z,100256.06
2023-07-02T17:14:21.356Z,100258.09
2023-07-02T17:19:19.657Z,100276.97
2023-07-02T17:24:16.374Z,100281.97
2023-07-02T17:29:17.816Z,100285.50
2023-07-02T17:34:17.488Z,100287.63
2023-07-02T17:39:15.350Z,100291.88
2023-07-02T17:44:12.365Z,100288.19
2023-07-02T17:49:12.922Z,100282.94
2023-07-02T17:54:09.724Z,100276.47
2023-07-02T17:59:08.382Z,100275.31
2023-07-02T18:04:05.288Z,100282.63
2023-07-02T18:09:14.055Z,100284.06
2023-07-02T18:14:24.541Z,100285.38
2023-07-02T18:19:24.693Z,100292.88
2023-07-02T18:24:23.530Z,100294.75
2023-07-02T18:29:20.832Z,100302.00
2023-07-02T18:34:17.902Z,100300.06
2023-07-02T18:39:14.722Z,100315.09
2023-07-02T18:44:12.357Z,100303.50
2023-07-02T18:49:09.146Z,100326.25
2023-07-02T18:54:08.239Z,100325.31
2023-07-02T18:59:05.039Z,100333.25
2023-07-02T19:04:06.525Z,100351.13
2023-07-02T19:09:06.042Z,100348.28
2023-07-02T19:14:04.016Z,100340.38
2023-07-02T19:19:00.910Z,100345.53
2023-07-02T19:23:59.393Z,100357.81
2023-07-02T19:28:56.477Z,100351.63
2023-07-02T19:33:53.492Z,100354.03
2023-07-02T19:38:50.274Z,100360.00
2023-07-02T19:43:49.352Z,100368.63
2023-07-02T19:48:46.060Z,100369.47
2023-07-02T19:53:43.281Z,100377.53
2023-07-02T19:58:40.972Z,100371.03
2023-07-02T20:03:39.076Z,100389.53
2023-07-02T20:08:35.910Z,100390.03
2023-07-02T20:13:32.778Z,100392.69
2023-07-02T20:18:29.495Z,100399.63
2023-07-02T20:23:27.678Z,100411.84
2023-07-02T20:28:24.728Z,100411.19
2023-07-02T20:33:21.555Z,100413.34
2023-07-02T20:38:18.185Z,100415.47
2023-07-02T20:43:15.861Z,100419.44
2023-07-02T20:48:13.618Z,100426.53
2023-07-02T20:53:10.490Z,100406.13
2023-07-02T20:58:07.098Z,100416.06
2023-07-02T21:03:05.897Z,100428.84
2023-07-02T21:08:02.657Z,100425.72
2023-07-02T21:13:01.590Z,100434.25
2023-07-02T21:18:01.675Z,100442.56
2023-07-02T21:22:59.099Z,100435.44
2023-07-02T21:27:55.882Z,100435.00
2023-07-02T21:32:52.749Z,100439.53
2023-07-02T21:37:49.864Z,100435.25
2023-07-02T21:42:47.239Z,100439.09
2023-07-02T21:47:47.295Z,100437.84
2023-07-02T21:52:44.119Z,100452.78
2023-07-02T21:57:40.898Z,100453.63
2023-07-02T22:02:38.544Z,100455.94
2023-07-02T22:07:36.941Z,100463.44
2023-07-02T22:12:33.578Z,100456.75
2023-07-02T22:17:30.270Z,100468.91
2023-07-02T22:22:28.269Z,100474.81
2023-07-02T22:27:26.994Z,100478.72
2023-07-02T22:32:24.128Z,100472.69
2023-07-02T22:37:20.877Z,100469.88
2023-07-02T22:42:18.392Z,100466.81
2023-07-02T22:47:15.229Z,100481.88
2023-07-02T22:52:11.985Z,100482.53
2023-07-02T22:57:08.682Z,100472.63
2023-07-02T23:02:06.244Z,100470.25
2023-07-02T23:07:03.071Z,100479.97
2023-07-02T23:11:59.861Z,100480.25
2023-07-02T23:16:56.597Z,100471.06
2023-07-02T23:21:54.204Z,100476.75
2023-07-02T23:26:50.849Z,100476.75
2023-07-02T23:31:47.782Z,100444.53
2023-07-02T23:36:45.256Z,100481.19
2023-07-02T23:41:42.752Z,100475.69
2023-07-02T23:46:39.452Z,100470.78
2023-07-02T23:51:36.361Z,100465.25
2023-07-02T23:56:35.535Z,100466.88
